sensor_id;sensor_type;location;lat;lon;timestamp;P1;durP1;ratioP1;P2;durP2;ratioP2
75154;SDS011;63735;44.730;37.818;2023-03-01T00:02:01;13.95;;;8.70;;
75154;SDS011;63735;44.730;37.818;2023-03-01T00:04:27;15.88;;;10.57;;
75154;SDS011;63735;44.730;37.818;2023-03-01T00:06:53;13.32;;;9.02;;
75154;SDS011;63735;44.730;37.818;2023-03-01T00:09:18;8.18;;;4.80;;
75154;SDS011;63735;44.730;37.818;2023-03-01T00:11:45;10.23;;;6.70;;
75154;SDS011;63735;44.730;37.818;2023-03-01T00:14:11;8.52;;;4.65;;
75154;SDS011;63735;44.730;37.818;2023-03-01T00:16:41;11.48;;;6.97;;
75154;SDS011;63735;44.730;37.818;2023-03-01T00:19:12;8.85;;;5.90;;
75154;SDS011;63735;44.730;37.818;2023-03-01T00:21:38;9.05;;;4.35;;
75154;SDS011;63735;44.730;37.818;2023-03-01T00:24:04;8.35;;;5.20;;
75154;SDS011;63735;44.730;37.818;2023-03-01T00:26:30;13.25;;;8.30;;
75154;SDS011;63735;44.730;37.818;2023-03-01T00:28:56;12.48;;;7.55;;
75154;SDS011;63735;44.730;37.818;2023-03-01T00:31:23;10.38;;;6.10;;
75154;SDS011;63735;44.730;37.818;2023-03-01T00:33:52;10.38;;;6.25;;
75154;SDS011;63735;44.730;37.818;2023-03-01T00:36:17;9.52;;;5.38;;
75154;SDS011;63735;44.730;37.818;2023-03-01T00:38:44;11.05;;;6.68;;
75154;SDS011;63735;44.730;37.818;2023-03-01T00:41:11;9.38;;;6.32;;
75154;SDS011;63735;44.730;37.818;2023-03-01T00:43:37;9.88;;;6.38;;
75154;SDS011;63735;44.730;37.818;2023-03-01T00:46:07;9.32;;;5.80;;
75154;SDS011;63735;44.730;37.818;2023-03-01T00:48:33;8.88;;;7.10;;
75154;SDS011;63735;44.730;37.818;2023-03-01T00:51:09;9.43;;;6.50;;
75154;SDS011;63735;44.730;37.818;2023-03-01T00:53:35;12.38;;;8.90;;
75154;SDS011;63735;44.730;37.818;2023-03-01T00:56:02;6.68;;;4.45;;
75154;SDS011;63735;44.730;37.818;2023-03-01T00:58:28;8.32;;;4.55;;
75154;SDS011;63735;44.730;37.818;2023-03-01T01:00:53;8.52;;;5.95;;
75154;SDS011;63735;44.730;37.818;2023-03-01T01:03:19;5.85;;;3.42;;
75154;SDS011;63735;44.730;37.818;2023-03-01T01:05:45;4.10;;;2.38;;
75154;SDS011;63735;44.730;37.818;2023-03-01T01:08:11;4.80;;;2.78;;
75154;SDS011;63735;44.730;37.818;2023-03-01T01:10:36;5.63;;;3.08;;
75154;SDS011;63735;44.730;37.818;2023-03-01T01:13:02;5.50;;;3.13;;
75154;SDS011;63735;44.730;37.818;2023-03-01T01:15:28;5.88;;;3.65;;
75154;SDS011;63735;44.730;37.818;2023-03-01T01:17:53;7.07;;;4.03;;
75154;SDS011;63735;44.730;37.818;2023-03-01T01:20:20;4.07;;;2.45;;
75154;SDS011;63735;44.730;37.818;2023-03-01T01:22:49;6.15;;;3.75;;
75154;SDS011;63735;44.730;37.818;2023-03-01T01:25:16;7.15;;;4.00;;
75154;SDS011;63735;44.730;37.818;2023-03-01T01:27:42;8.75;;;3.65;;
75154;SDS011;63735;44.730;37.818;2023-03-01T01:30:08;6.80;;;3.40;;
75154;SDS011;63735;44.730;37.818;2023-03-01T01:32:33;8.02;;;4.63;;
75154;SDS011;63735;44.730;37.818;2023-03-01T01:34:59;8.75;;;5.35;;
75154;SDS011;63735;44.730;37.818;2023-03-01T01:37:25;6.22;;;3.17;;
75154;SDS011;63735;44.730;37.818;2023-03-01T01:40:00;6.55;;;4.43;;
75154;SDS011;63735;44.730;37.818;2023-03-01T01:42:26;6.60;;;4.20;;
75154;SDS011;63735;44.730;37.818;2023-03-01T01:47:36;5.15;;;2.95;;
75154;SDS011;63735;44.730;37.818;2023-03-01T01:50:02;7.05;;;3.50;;
75154;SDS011;63735;44.730;37.818;2023-03-01T01:52:34;3.58;;;2.03;;
75154;SDS011;63735;44.730;37.818;2023-03-01T01:57:34;3.75;;;2.17;;
75154;SDS011;63735;44.730;37.818;2023-03-01T02:00:03;4.05;;;2.35;;
75154;SDS011;63735;44.730;37.818;2023-03-01T02:02:38;4.97;;;3.05;;
75154;SDS011;63735;44.730;37.818;2023-03-01T02:05:08;4.95;;;2.78;;
75154;SDS011;63735;44.730;37.818;2023-03-01T02:07:38;2.78;;;1.45;;
75154;SDS011;63735;44.730;37.818;2023-03-01T02:10:04;6.60;;;3.90;;
75154;SDS011;63735;44.730;37.818;2023-03-01T02:12:30;5.75;;;3.33;;
75154;SDS011;63735;44.730;37.818;2023-03-01T02:14:56;6.82;;;4.15;;
75154;SDS011;63735;44.730;37.818;2023-03-01T02:17:21;4.88;;;2.85;;
75154;SDS011;63735;44.730;37.818;2023-03-01T02:22:32;1.88;;;1.52;;
75154;SDS011;63735;44.730;37.818;2023-03-01T02:25:07;4.53;;;2.60;;
75154;SDS011;63735;44.730;37.818;2023-03-01T02:28:10;4.43;;;2.67;;
75154;SDS011;63735;44.730;37.818;2023-03-01T02:30:26;4.43;;;3.10;;
75154;SDS011;63735;44.730;37.818;2023-03-01T02:32:53;4.90;;;2.25;;
75154;SDS011;63735;44.730;37.818;2023-03-01T02:35:19;5.93;;;2.80;;
75154;SDS011;63735;44.730;37.818;2023-03-01T02:37:45;4.63;;;2.65;;
75154;SDS011;63735;44.730;37.818;2023-03-01T02:40:12;5.22;;;3.38;;
75154;SDS011;63735;44.730;37.818;2023-03-01T02:42:57;4.75;;;2.95;;
75154;SDS011;63735;44.730;37.818;2023-03-01T02:45:24;5.25;;;2.90;;
75154;SDS011;63735;44.730;37.818;2023-03-01T02:47:53;8.13;;;3.53;;
75154;SDS011;63735;44.730;37.818;2023-03-01T02:52:48;4.97;;;2.53;;
75154;SDS011;63735;44.730;37.818;2023-03-01T02:55:18;4.30;;;2.75;;
75154;SDS011;63735;44.730;37.818;2023-03-01T02:57:45;5.30;;;2.85;;
75154;SDS011;63735;44.730;37.818;2023-03-01T03:00:14;3.70;;;2.58;;
75154;SDS011;63735;44.730;37.818;2023-03-01T03:02:47;7.78;;;3.30;;
75154;SDS011;63735;44.730;37.818;2023-03-01T03:05:18;4.78;;;2.70;;
75154;SDS011;63735;44.730;37.818;2023-03-01T03:07:45;2.75;;;1.83;;
75154;SDS011;63735;44.730;37.818;2023-03-01T03:10:15;4.60;;;2.78;;
75154;SDS011;63735;44.730;37.818;2023-03-01T03:12:41;6.03;;;2.90;;
75154;SDS011;63735;44.730;37.818;2023-03-01T03:15:07;7.40;;;2.88;;
75154;SDS011;63735;44.730;37.818;2023-03-01T03:17:37;4.78;;;3.17;;
75154;SDS011;63735;44.730;37.818;2023-03-01T03:20:04;6.47;;;3.10;;
75154;SDS011;63735;44.730;37.818;2023-03-01T03:22:30;1.98;;;1.77;;
75154;SDS011;63735;44.730;37.818;2023-03-01T03:24:56;7.20;;;3.75;;
75154;SDS011;63735;44.730;37.818;2023-03-01T03:27:22;3.97;;;2.28;;
75154;SDS011;63735;44.730;37.818;2023-03-01T03:29:47;8.30;;;3.50;;
75154;SDS011;63735;44.730;37.818;2023-03-01T03:32:13;6.35;;;3.00;;
75154;SDS011;63735;44.730;37.818;2023-03-01T03:34:38;8.50;;;2.15;;
75154;SDS011;63735;44.730;37.818;2023-03-01T03:37:04;6.32;;;3.72;;
75154;SDS011;63735;44.730;37.818;2023-03-01T03:39:50;7.07;;;3.10;;
75154;SDS011;63735;44.730;37.818;2023-03-01T03:42:20;6.32;;;3.47;;
75154;SDS011;63735;44.730;37.818;2023-03-01T03:44:46;7.82;;;3.47;;
75154;SDS011;63735;44.730;37.818;2023-03-01T03:47:12;7.03;;;3.35;;
75154;SDS011;63735;44.730;37.818;2023-03-01T03:49:37;4.60;;;2.80;;
75154;SDS011;63735;44.730;37.818;2023-03-01T03:52:03;8.52;;;3.15;;
75154;SDS011;63735;44.730;37.818;2023-03-01T03:54:29;8.73;;;3.72;;
75154;SDS011;63735;44.730;37.818;2023-03-01T03:56:54;5.32;;;3.17;;
75154;SDS011;63735;44.730;37.818;2023-03-01T03:59:20;9.25;;;3.53;;
75154;SDS011;63735;44.730;37.818;2023-03-01T04:01:45;8.32;;;3.63;;
75154;SDS011;63735;44.730;37.818;2023-03-01T04:04:11;5.03;;;2.95;;
75154;SDS011;63735;44.730;37.818;2023-03-01T04:06:37;6.50;;;3.65;;
75154;SDS011;63735;44.730;37.818;2023-03-01T04:09:02;8.35;;;3.08;;
75154;SDS011;63735;44.730;37.818;2023-03-01T04:11:28;9.07;;;4.18;;
75154;SDS011;63735;44.730;37.818;2023-03-01T04:13:55;9.18;;;3.90;;
75154;SDS011;63735;44.730;37.818;2023-03-01T04:16:21;7.45;;;3.20;;
75154;SDS011;63735;44.730;37.818;2023-03-01T04:18:46;5.97;;;3.60;;
75154;SDS011;63735;44.730;37.818;2023-03-01T04:21:12;6.38;;;2.92;;
75154;SDS011;63735;44.730;37.818;2023-03-01T04:23:38;6.10;;;2.97;;
75154;SDS011;63735;44.730;37.818;2023-03-01T04:26:06;8.32;;;3.80;;
75154;SDS011;63735;44.730;37.818;2023-03-01T04:28:33;6.18;;;3.55;;
75154;SDS011;63735;44.730;37.818;2023-03-01T04:31:05;11.00;;;4.20;;
75154;SDS011;63735;44.730;37.818;2023-03-01T04:33:41;7.25;;;3.70;;
75154;SDS011;63735;44.730;37.818;2023-03-01T04:36:07;9.73;;;3.60;;
75154;SDS011;63735;44.730;37.818;2023-03-01T04:38:34;10.98;;;3.70;;
75154;SDS011;63735;44.730;37.818;2023-03-01T04:41:00;6.32;;;2.83;;
75154;SDS011;63735;44.730;37.818;2023-03-01T04:43:25;8.32;;;4.10;;
75154;SDS011;63735;44.730;37.818;2023-03-01T04:45:51;6.28;;;3.05;;
75154;SDS011;63735;44.730;37.818;2023-03-01T04:48:16;7.25;;;3.38;;
75154;SDS011;63735;44.730;37.818;2023-03-01T04:50:42;9.25;;;3.55;;
75154;SDS011;63735;44.730;37.818;2023-03-01T04:53:07;9.82;;;2.85;;
75154;SDS011;63735;44.730;37.818;2023-03-01T04:55:33;10.88;;;3.72;;
75154;SDS011;63735;44.730;37.818;2023-03-01T04:57:59;14.48;;;6.75;;
75154;SDS011;63735;44.730;37.818;2023-03-01T05:00:25;13.30;;;5.75;;
75154;SDS011;63735;44.730;37.818;2023-03-01T05:02:57;10.68;;;4.45;;
75154;SDS011;63735;44.730;37.818;2023-03-01T05:05:26;14.85;;;5.40;;
75154;SDS011;63735;44.730;37.818;2023-03-01T05:07:53;9.15;;;4.60;;
75154;SDS011;63735;44.730;37.818;2023-03-01T05:10:18;15.98;;;4.15;;
75154;SDS011;63735;44.730;37.818;2023-03-01T05:12:44;20.27;;;5.30;;
75154;SDS011;63735;44.730;37.818;2023-03-01T05:15:10;9.18;;;5.15;;
75154;SDS011;63735;44.730;37.818;2023-03-01T05:17:35;7.82;;;4.32;;
75154;SDS011;63735;44.730;37.818;2023-03-01T05:20:01;12.10;;;5.20;;
75154;SDS011;63735;44.730;37.818;2023-03-01T05:22:31;9.40;;;4.20;;
75154;SDS011;63735;44.730;37.818;2023-03-01T05:24:56;8.63;;;3.65;;
75154;SDS011;63735;44.730;37.818;2023-03-01T05:27:22;8.30;;;3.28;;
75154;SDS011;63735;44.730;37.818;2023-03-01T05:29:48;15.10;;;5.72;;
75154;SDS011;63735;44.730;37.818;2023-03-01T05:32:13;13.55;;;6.97;;
75154;SDS011;63735;44.730;37.818;2023-03-01T05:34:41;15.63;;;5.35;;
75154;SDS011;63735;44.730;37.818;2023-03-01T05:37:06;9.32;;;5.45;;
75154;SDS011;63735;44.730;37.818;2023-03-01T05:39:33;15.23;;;7.18;;
75154;SDS011;63735;44.730;37.818;2023-03-01T05:41:59;14.88;;;4.97;;
75154;SDS011;63735;44.730;37.818;2023-03-01T05:44:26;10.88;;;3.92;;
75154;SDS011;63735;44.730;37.818;2023-03-01T05:46:51;12.60;;;6.00;;
75154;SDS011;63735;44.730;37.818;2023-03-01T05:49:17;12.25;;;6.05;;
75154;SDS011;63735;44.730;37.818;2023-03-01T05:51:47;17.58;;;5.75;;
75154;SDS011;63735;44.730;37.818;2023-03-01T05:54:13;3.63;;;2.25;;
75154;SDS011;63735;44.730;37.818;2023-03-01T05:56:39;3.20;;;2.08;;
75154;SDS011;63735;44.730;37.818;2023-03-01T05:59:05;11.43;;;4.05;;
75154;SDS011;63735;44.730;37.818;2023-03-01T06:01:31;19.65;;;7.38;;
75154;SDS011;63735;44.730;37.818;2023-03-01T06:03:57;19.65;;;7.25;;
75154;SDS011;63735;44.730;37.818;2023-03-01T06:06:23;13.40;;;5.68;;
75154;SDS011;63735;44.730;37.818;2023-03-01T06:08:49;17.88;;;6.53;;
75154;SDS011;63735;44.730;37.818;2023-03-01T06:11:15;16.60;;;6.68;;
75154;SDS011;63735;44.730;37.818;2023-03-01T06:13:41;19.40;;;6.85;;
75154;SDS011;63735;44.730;37.818;2023-03-01T06:16:07;17.65;;;7.07;;
75154;SDS011;63735;44.730;37.818;2023-03-01T06:18:33;15.93;;;7.25;;
75154;SDS011;63735;44.730;37.818;2023-03-01T06:20:59;20.67;;;7.53;;
75154;SDS011;63735;44.730;37.818;2023-03-01T06:23:24;14.50;;;6.50;;
75154;SDS011;63735;44.730;37.818;2023-03-01T06:25:50;18.30;;;6.85;;
75154;SDS011;63735;44.730;37.818;2023-03-01T06:28:16;13.35;;;5.70;;
75154;SDS011;63735;44.730;37.818;2023-03-01T06:30:41;14.85;;;7.28;;
75154;SDS011;63735;44.730;37.818;2023-03-01T06:33:07;15.27;;;6.78;;
75154;SDS011;63735;44.730;37.818;2023-03-01T06:35:33;17.58;;;6.95;;
75154;SDS011;63735;44.730;37.818;2023-03-01T06:38:00;24.05;;;6.40;;
75154;SDS011;63735;44.730;37.818;2023-03-01T06:40:27;17.27;;;6.85;;
75154;SDS011;63735;44.730;37.818;2023-03-01T06:42:57;20.95;;;7.93;;
75154;SDS011;63735;44.730;37.818;2023-03-01T06:45:28;18.98;;;6.25;;
75154;SDS011;63735;44.730;37.818;2023-03-01T06:48:00;19.95;;;7.00;;
75154;SDS011;63735;44.730;37.818;2023-03-01T06:50:26;17.60;;;6.10;;
75154;SDS011;63735;44.730;37.818;2023-03-01T06:52:55;13.48;;;6.65;;
75154;SDS011;63735;44.730;37.818;2023-03-01T06:55:20;12.80;;;5.70;;
75154;SDS011;63735;44.730;37.818;2023-03-01T06:57:46;22.88;;;8.70;;
75154;SDS011;63735;44.730;37.818;2023-03-01T07:00:12;14.82;;;6.60;;
75154;SDS011;63735;44.730;37.818;2023-03-01T07:02:38;14.82;;;6.40;;
75154;SDS011;63735;44.730;37.818;2023-03-01T07:05:04;14.73;;;6.40;;
75154;SDS011;63735;44.730;37.818;2023-03-01T07:07:29;13.18;;;6.50;;
75154;SDS011;63735;44.730;37.818;2023-03-01T07:09:55;15.45;;;5.53;;
75154;SDS011;63735;44.730;37.818;2023-03-01T07:12:21;15.43;;;7.15;;
75154;SDS011;63735;44.730;37.818;2023-03-01T07:14:47;13.98;;;6.10;;
75154;SDS011;63735;44.730;37.818;2023-03-01T07:17:13;18.02;;;5.90;;
75154;SDS011;63735;44.730;37.818;2023-03-01T07:19:39;9.57;;;5.30;;
75154;SDS011;63735;44.730;37.818;2023-03-01T07:22:05;15.18;;;5.15;;
75154;SDS011;63735;44.730;37.818;2023-03-01T07:24:33;19.30;;;6.80;;
75154;SDS011;63735;44.730;37.818;2023-03-01T07:26:59;15.07;;;6.30;;
75154;SDS011;63735;44.730;37.818;2023-03-01T07:29:26;11.85;;;5.40;;
75154;SDS011;63735;44.730;37.818;2023-03-01T07:31:54;13.40;;;7.22;;
75154;SDS011;63735;44.730;37.818;2023-03-01T07:34:20;14.57;;;7.20;;
75154;SDS011;63735;44.730;37.818;2023-03-01T07:36:46;22.35;;;7.45;;
75154;SDS011;63735;44.730;37.818;2023-03-01T07:39:11;15.50;;;7.43;;
75154;SDS011;63735;44.730;37.818;2023-03-01T07:41:37;16.45;;;7.45;;
75154;SDS011;63735;44.730;37.818;2023-03-01T07:44:03;19.50;;;7.68;;
75154;SDS011;63735;44.730;37.818;2023-03-01T07:46:29;20.15;;;6.55;;
75154;SDS011;63735;44.730;37.818;2023-03-01T07:48:55;15.55;;;7.07;;
75154;SDS011;63735;44.730;37.818;2023-03-01T07:51:20;16.98;;;7.50;;
75154;SDS011;63735;44.730;37.818;2023-03-01T07:53:46;14.90;;;5.45;;
75154;SDS011;63735;44.730;37.818;2023-03-01T07:56:14;17.13;;;6.85;;
75154;SDS011;63735;44.730;37.818;2023-03-01T07:58:41;9.23;;;5.10;;
75154;SDS011;63735;44.730;37.818;2023-03-01T08:01:07;12.63;;;6.35;;
75154;SDS011;63735;44.730;37.818;2023-03-01T08:03:33;8.82;;;5.10;;
75154;SDS011;63735;44.730;37.818;2023-03-01T08:06:00;20.95;;;5.93;;
75154;SDS011;63735;44.730;37.818;2023-03-01T08:08:25;13.70;;;6.30;;
75154;SDS011;63735;44.730;37.818;2023-03-01T08:10:51;15.15;;;6.38;;
75154;SDS011;63735;44.730;37.818;2023-03-01T08:13:17;16.67;;;6.50;;
75154;SDS011;63735;44.730;37.818;2023-03-01T08:15:50;20.35;;;6.47;;
75154;SDS011;63735;44.730;37.818;2023-03-01T08:18:16;23.70;;;7.53;;
75154;SDS011;63735;44.730;37.818;2023-03-01T08:20:42;25.45;;;7.20;;
75154;SDS011;63735;44.730;37.818;2023-03-01T08:23:08;13.82;;;5.97;;
75154;SDS011;63735;44.730;37.818;2023-03-01T08:25:33;24.55;;;7.15;;
75154;SDS011;63735;44.730;37.818;2023-03-01T08:27:59;19.83;;;6.93;;
75154;SDS011;63735;44.730;37.818;2023-03-01T08:30:24;14.73;;;6.95;;
75154;SDS011;63735;44.730;37.818;2023-03-01T08:32:50;9.68;;;5.15;;
75154;SDS011;63735;44.730;37.818;2023-03-01T08:35:16;18.42;;;6.75;;
75154;SDS011;63735;44.730;37.818;2023-03-01T08:37:42;18.05;;;6.85;;
75154;SDS011;63735;44.730;37.818;2023-03-01T08:40:08;22.00;;;8.00;;
75154;SDS011;63735;44.730;37.818;2023-03-01T08:42:35;12.23;;;5.65;;
75154;SDS011;63735;44.730;37.818;2023-03-01T08:45:01;14.43;;;6.97;;
75154;SDS011;63735;44.730;37.818;2023-03-01T08:47:27;15.57;;;7.35;;
75154;SDS011;63735;44.730;37.818;2023-03-01T08:49:53;25.13;;;7.80;;
75154;SDS011;63735;44.730;37.818;2023-03-01T08:52:19;20.67;;;7.47;;
75154;SDS011;63735;44.730;37.818;2023-03-01T08:54:44;16.13;;;7.68;;
75154;SDS011;63735;44.730;37.818;2023-03-01T08:57:10;14.95;;;6.93;;
75154;SDS011;63735;44.730;37.818;2023-03-01T08:59:36;16.58;;;7.65;;
75154;SDS011;63735;44.730;37.818;2023-03-01T09:02:03;18.02;;;7.85;;
75154;SDS011;63735;44.730;37.818;2023-03-01T09:04:29;17.42;;;8.85;;
75154;SDS011;63735;44.730;37.818;2023-03-01T09:06:54;18.50;;;8.65;;
75154;SDS011;63735;44.730;37.818;2023-03-01T09:09:20;13.75;;;7.22;;
75154;SDS011;63735;44.730;37.818;2023-03-01T09:11:46;14.32;;;7.95;;
75154;SDS011;63735;44.730;37.818;2023-03-01T09:14:12;17.83;;;8.43;;
75154;SDS011;63735;44.730;37.818;2023-03-01T09:16:38;21.48;;;8.20;;
75154;SDS011;63735;44.730;37.818;2023-03-01T09:19:03;21.08;;;9.35;;
75154;SDS011;63735;44.730;37.818;2023-03-01T09:21:29;13.90;;;7.63;;
75154;SDS011;63735;44.730;37.818;2023-03-01T09:23:55;20.92;;;8.45;;
75154;SDS011;63735;44.730;37.818;2023-03-01T09:26:21;18.52;;;8.43;;
75154;SDS011;63735;44.730;37.818;2023-03-01T09:28:48;18.10;;;8.18;;
75154;SDS011;63735;44.730;37.818;2023-03-01T09:31:14;20.75;;;7.38;;
75154;SDS011;63735;44.730;37.818;2023-03-01T09:33:41;15.82;;;7.43;;
75154;SDS011;63735;44.730;37.818;2023-03-01T09:36:11;22.63;;;8.57;;
75154;SDS011;63735;44.730;37.818;2023-03-01T09:38:37;17.38;;;7.80;;
75154;SDS011;63735;44.730;37.818;2023-03-01T09:41:08;18.10;;;9.27;;
75154;SDS011;63735;44.730;37.818;2023-03-01T09:46:01;17.45;;;7.93;;
75154;SDS011;63735;44.730;37.818;2023-03-01T09:48:30;23.52;;;8.85;;
75154;SDS011;63735;44.730;37.818;2023-03-01T09:50:58;22.13;;;8.30;;
75154;SDS011;63735;44.730;37.818;2023-03-01T09:53:28;18.08;;;8.20;;
75154;SDS011;63735;44.730;37.818;2023-03-01T09:56:02;26.23;;;9.02;;
75154;SDS011;63735;44.730;37.818;2023-03-01T10:01:09;16.38;;;7.70;;
75154;SDS011;63735;44.730;37.818;2023-03-01T10:03:51;17.75;;;7.32;;
75154;SDS011;63735;44.730;37.818;2023-03-01T10:06:21;25.27;;;8.48;;
75154;SDS011;63735;44.730;37.818;2023-03-01T10:11:17;19.17;;;7.97;;
75154;SDS011;63735;44.730;37.818;2023-03-01T10:13:54;21.55;;;7.55;;
75154;SDS011;63735;44.730;37.818;2023-03-01T10:18:59;19.33;;;7.43;;
75154;SDS011;63735;44.730;37.818;2023-03-01T10:21:26;13.68;;;7.45;;
75154;SDS011;63735;44.730;37.818;2023-03-01T10:26:38;14.75;;;7.10;;
75154;SDS011;63735;44.730;37.818;2023-03-01T10:29:09;18.33;;;8.10;;
75154;SDS011;63735;44.730;37.818;2023-03-01T10:34:08;18.65;;;7.45;;
75154;SDS011;63735;44.730;37.818;2023-03-01T10:36:35;18.58;;;7.38;;
75154;SDS011;63735;44.730;37.818;2023-03-01T10:39:01;17.77;;;6.88;;
75154;SDS011;63735;44.730;37.818;2023-03-01T10:41:31;16.02;;;7.35;;
75154;SDS011;63735;44.730;37.818;2023-03-01T10:43:57;24.48;;;7.25;;
75154;SDS011;63735;44.730;37.818;2023-03-01T10:51:36;13.35;;;7.13;;
75154;SDS011;63735;44.730;37.818;2023-03-01T10:54:02;20.00;;;6.35;;
75154;SDS011;63735;44.730;37.818;2023-03-01T10:56:29;13.20;;;6.10;;
75154;SDS011;63735;44.730;37.818;2023-03-01T10:59:19;15.32;;;5.53;;
75154;SDS011;63735;44.730;37.818;2023-03-01T11:01:45;13.43;;;5.38;;
75154;SDS011;63735;44.730;37.818;2023-03-01T11:04:12;18.70;;;5.88;;
75154;SDS011;63735;44.730;37.818;2023-03-01T11:06:39;17.02;;;7.00;;
75154;SDS011;63735;44.730;37.818;2023-03-01T11:09:15;18.63;;;6.07;;
75154;SDS011;63735;44.730;37.818;2023-03-01T11:11:41;12.75;;;5.95;;
75154;SDS011;63735;44.730;37.818;2023-03-01T11:17:44;11.45;;;5.47;;
75154;SDS011;63735;44.730;37.818;2023-03-01T11:20:00;13.32;;;4.63;;
75154;SDS011;63735;44.730;37.818;2023-03-01T11:22:26;10.13;;;4.90;;
75154;SDS011;63735;44.730;37.818;2023-03-01T11:24:53;18.23;;;5.00;;
75154;SDS011;63735;44.730;37.818;2023-03-01T11:27:22;11.50;;;5.65;;
75154;SDS011;63735;44.730;37.818;2023-03-01T11:30:35;9.52;;;4.45;;
75154;SDS011;63735;44.730;37.818;2023-03-01T11:32:38;9.15;;;4.43;;
75154;SDS011;63735;44.730;37.818;2023-03-01T11:35:10;14.80;;;4.70;;
75154;SDS011;63735;44.730;37.818;2023-03-01T11:40:27;11.95;;;5.13;;
75154;SDS011;63735;44.730;37.818;2023-03-01T11:42:58;9.68;;;3.70;;
75154;SDS011;63735;44.730;37.818;2023-03-01T11:45:25;14.68;;;4.78;;
75154;SDS011;63735;44.730;37.818;2023-03-01T12:04:02;9.43;;;4.35;;
75154;SDS011;63735;44.730;37.818;2023-03-01T12:11:33;10.30;;;4.80;;
75154;SDS011;63735;44.730;37.818;2023-03-01T12:29:25;13.63;;;4.30;;
75154;SDS011;63735;44.730;37.818;2023-03-01T12:34:37;9.77;;;4.45;;
75154;SDS011;63735;44.730;37.818;2023-03-01T12:40:01;12.95;;;4.45;;
75154;SDS011;63735;44.730;37.818;2023-03-01T12:42:31;9.07;;;4.03;;
75154;SDS011;63735;44.730;37.818;2023-03-01T12:47:44;5.43;;;2.92;;
75154;SDS011;63735;44.730;37.818;2023-03-01T12:50:20;7.22;;;3.47;;
75154;SDS011;63735;44.730;37.818;2023-03-01T12:52:56;6.78;;;2.78;;
75154;SDS011;63735;44.730;37.818;2023-03-01T12:57:50;9.40;;;3.57;;
75154;SDS011;63735;44.730;37.818;2023-03-01T13:02:52;9.00;;;3.95;;
75154;SDS011;63735;44.730;37.818;2023-03-01T13:13:01;13.05;;;4.32;;
75154;SDS011;63735;44.730;37.818;2023-03-01T13:25:32;7.70;;;3.63;;
75154;SDS011;63735;44.730;37.818;2023-03-01T13:30:42;12.13;;;4.07;;
75154;SDS011;63735;44.730;37.818;2023-03-01T13:35:52;8.05;;;3.80;;
75154;SDS011;63735;44.730;37.818;2023-03-01T13:41:03;11.25;;;3.22;;
75154;SDS011;63735;44.730;37.818;2023-03-01T13:43:31;12.30;;;3.63;;
75154;SDS011;63735;44.730;37.818;2023-03-01T13:45:57;11.85;;;4.72;;
75154;SDS011;63735;44.730;37.818;2023-03-01T13:48:27;11.57;;;4.00;;
75154;SDS011;63735;44.730;37.818;2023-03-01T13:51:03;12.52;;;4.60;;
75154;SDS011;63735;44.730;37.818;2023-03-01T13:53:31;11.98;;;5.03;;
75154;SDS011;63735;44.730;37.818;2023-03-01T13:55:58;14.68;;;3.83;;
75154;SDS011;63735;44.730;37.818;2023-03-01T14:00:55;7.47;;;3.45;;
75154;SDS011;63735;44.730;37.818;2023-03-01T14:03:21;12.15;;;4.68;;
75154;SDS011;63735;44.730;37.818;2023-03-01T14:08:25;12.27;;;4.47;;
75154;SDS011;63735;44.730;37.818;2023-03-01T14:16:11;11.45;;;4.53;;
75154;SDS011;63735;44.730;37.818;2023-03-01T14:18:43;11.48;;;4.13;;
75154;SDS011;63735;44.730;37.818;2023-03-01T14:21:13;9.82;;;4.22;;
75154;SDS011;63735;44.730;37.818;2023-03-01T14:23:39;17.85;;;4.30;;
75154;SDS011;63735;44.730;37.818;2023-03-01T14:26:07;8.90;;;3.97;;
75154;SDS011;63735;44.730;37.818;2023-03-01T14:28:33;15.95;;;4.30;;
75154;SDS011;63735;44.730;37.818;2023-03-01T14:31:02;15.30;;;4.90;;
75154;SDS011;63735;44.730;37.818;2023-03-01T14:33:32;11.50;;;5.03;;
75154;SDS011;63735;44.730;37.818;2023-03-01T14:36:05;9.07;;;4.28;;
75154;SDS011;63735;44.730;37.818;2023-03-01T14:43:52;11.13;;;4.82;;
75154;SDS011;63735;44.730;37.818;2023-03-01T14:48:56;16.25;;;6.30;;
75154;SDS011;63735;44.730;37.818;2023-03-01T14:51:23;14.73;;;5.43;;
75154;SDS011;63735;44.730;37.818;2023-03-01T14:53:49;20.38;;;4.80;;
75154;SDS011;63735;44.730;37.818;2023-03-01T14:56:16;20.30;;;5.22;;
75154;SDS011;63735;44.730;37.818;2023-03-01T14:58:45;19.85;;;5.63;;
75154;SDS011;63735;44.730;37.818;2023-03-01T15:01:16;13.30;;;5.30;;
75154;SDS011;63735;44.730;37.818;2023-03-01T15:03:43;18.05;;;4.40;;
75154;SDS011;63735;44.730;37.818;2023-03-01T15:06:17;9.23;;;4.00;;
75154;SDS011;63735;44.730;37.818;2023-03-01T15:08:48;12.18;;;4.20;;
75154;SDS011;63735;44.730;37.818;2023-03-01T15:11:17;18.52;;;5.00;;
75154;SDS011;63735;44.730;37.818;2023-03-01T15:13:47;11.75;;;4.38;;
75154;SDS011;63735;44.730;37.818;2023-03-01T15:16:14;14.93;;;4.65;;
75154;SDS011;63735;44.730;37.818;2023-03-01T15:18:48;16.92;;;4.35;;
75154;SDS011;63735;44.730;37.818;2023-03-01T15:24:16;12.05;;;4.00;;
75154;SDS011;63735;44.730;37.818;2023-03-01T15:26:53;10.40;;;4.28;;
75154;SDS011;63735;44.730;37.818;2023-03-01T15:29:24;15.23;;;4.32;;
75154;SDS011;63735;44.730;37.818;2023-03-01T15:32:04;14.77;;;3.90;;
75154;SDS011;63735;44.730;37.818;2023-03-01T15:34:34;16.88;;;3.65;;
75154;SDS011;63735;44.730;37.818;2023-03-01T15:37:03;12.80;;;4.18;;
75154;SDS011;63735;44.730;37.818;2023-03-01T15:45:07;11.00;;;4.72;;
75154;SDS011;63735;44.730;37.818;2023-03-01T15:47:33;13.90;;;4.25;;
75154;SDS011;63735;44.730;37.818;2023-03-01T15:49:59;10.98;;;4.68;;
75154;SDS011;63735;44.730;37.818;2023-03-01T15:52:43;27.38;;;5.50;;
75154;SDS011;63735;44.730;37.818;2023-03-01T15:55:15;21.02;;;5.25;;
75154;SDS011;63735;44.730;37.818;2023-03-01T15:57:41;16.85;;;4.57;;
75154;SDS011;63735;44.730;37.818;2023-03-01T16:00:10;8.93;;;4.18;;
75154;SDS011;63735;44.730;37.818;2023-03-01T16:02:37;17.52;;;5.35;;
75154;SDS011;63735;44.730;37.818;2023-03-01T16:05:03;17.25;;;5.07;;
75154;SDS011;63735;44.730;37.818;2023-03-01T16:07:29;7.22;;;2.90;;
75154;SDS011;63735;44.730;37.818;2023-03-01T16:09:56;4.50;;;1.92;;
75154;SDS011;63735;44.730;37.818;2023-03-01T16:12:22;4.45;;;1.65;;
75154;SDS011;63735;44.730;37.818;2023-03-01T16:14:49;3.95;;;2.20;;
75154;SDS011;63735;44.730;37.818;2023-03-01T16:17:15;8.60;;;1.80;;
75154;SDS011;63735;44.730;37.818;2023-03-01T16:19:41;5.18;;;1.70;;
75154;SDS011;63735;44.730;37.818;2023-03-01T16:22:06;14.73;;;3.67;;
75154;SDS011;63735;44.730;37.818;2023-03-01T16:24:34;20.50;;;5.65;;
75154;SDS011;63735;44.730;37.818;2023-03-01T16:27:01;277.80;;;69.95;;
75154;SDS011;63735;44.730;37.818;2023-03-01T16:29:26;241.48;;;67.53;;
75154;SDS011;63735;44.730;37.818;2023-03-01T16:31:54;193.48;;;64.35;;
75154;SDS011;63735;44.730;37.818;2023-03-01T16:34:20;89.22;;;31.42;;
75154;SDS011;63735;44.730;37.818;2023-03-01T16:36:47;34.78;;;10.35;;
75154;SDS011;63735;44.730;37.818;2023-03-01T16:39:12;27.92;;;10.20;;
75154;SDS011;63735;44.730;37.818;2023-03-01T16:41:38;25.05;;;10.80;;
75154;SDS011;63735;44.730;37.818;2023-03-01T16:44:04;19.23;;;7.70;;
75154;SDS011;63735;44.730;37.818;2023-03-01T16:46:29;22.67;;;9.07;;
75154;SDS011;63735;44.730;37.818;2023-03-01T16:48:55;24.52;;;9.35;;